Time;durP1;ratioP1;P1;durP2;ratioP2;P2;SDS_P1;SDS_P2;PMS_P1;PMS_P2;Temp;Humidity;BMP_temperature;BMP_pressure;BME280_temperature;BME280_humidity;BME280_pressure;Samples;Min_cycle;Max_cycle;Signal;HPM_P1;HPM_P2
2022/01/01 13:28:54;;;;;;;10.95;5.70;;;;;;;;;;5090961;27;20398;-66
2022/01/01 13:31:20;;;;;;;11.40;6.30;;;;;;;;;;5072102;28;20033;-67
2022/01/01 13:33:47;;;;;;;11.82;5.65;;;;;;;;;;5073506;28;20056;-67
2022/01/01 13:36:28;;;;;;;12.73;4.95;;;;;;;;;;5071814;28;20035;-66
2022/01/01 13:38:54;;;;;;;5.78;4.75;;;;;;;;;;5090513;28;20077;-66
2022/01/01 13:41:20;;;;;;;7.30;5.15;;;;;;;;;;5090347;28;20028;-66
2022/01/01 13:43:46;;;;;;;9.07;5.15;;;;;;;;;;5090364;28;20036;-66
2022/01/01 13:46:31;;;;;;;7.43;4.95;;;;;;;;;;5089895;28;20029;-67
2022/01/01 13:48:58;;;;;;;6.68;4.68;;;;;;;;;;5087149;28;20123;-66
2022/01/01 13:51:27;;;;;;;8.60;4.45;;;;;;;;;;5090298;28;20020;-66
2022/01/01 13:54:06;;;;;;;6.65;4.10;;;;;;;;;;5084665;28;20539;-66
2022/01/01 13:56:32;;;;;;;8.45;4.07;;;;;;;;;;5110171;28;20020;-66
2022/01/01 13:58:58;;;;;;;5.70;4.30;;;;;;;;;;5092206;28;20479;-67
2022/01/01 14:01:26;;;;;;;6.43;4.15;;;;;;;;;;5089838;28;20020;-67
2022/01/01 14:03:53;;;;;;;7.63;4.50;;;;;;;;;;5089716;28;20059;-67
2022/01/01 14:06:28;;;;;;;6.20;4.07;;;;;;;;;;5089710;28;20103;-66
2022/01/01 14:08:57;;;;;;;7.00;4.18;;;;;;;;;;5090124;28;20051;-66
2022/01/01 14:11:26;;;;;;;4.63;3.78;;;;;;;;;;5089695;28;20017;-66
2022/01/01 14:14:02;;;;;;;5.78;3.50;;;;;;;;;;5089457;28;20028;-66
2022/01/01 14:16:30;;;;;;;5.50;3.88;;;;;;;;;;5089682;28;20048;-67
2022/01/01 14:18:56;;;;;;;5.25;3.60;;;;;;;;;;5089403;28;20460;-67
2022/01/01 14:21:24;;;;;;;4.90;3.58;;;;;;;;;;5089353;28;20099;-67
2022/01/01 14:23:54;;;;;;;5.20;3.15;;;;;;;;;;5089614;28;20028;-67
2022/01/01 14:26:22;;;;;;;5.13;3.28;;;;;;;;;;5089484;28;20025;-67
2022/01/01 14:28:52;;;;;;;5.25;3.10;;;;;;;;;;5088849;28;20114;-67
2022/01/01 14:31:18;;;;;;;6.13;3.63;;;;;;;;;;5068992;28;20029;-67
2022/01/01 14:33:45;;;;;;;4.43;3.30;;;;;;;;;;5068973;28;20024;-67
2022/01/01 14:36:14;;;;;;;7.15;3.30;;;;;;;;;;5083283;28;20036;-68
2022/01/01 14:38:41;;;;;;;9.73;3.25;;;;;;;;;;5084558;28;20056;-68
2022/01/01 14:41:08;;;;;;;11.55;3.10;;;;;;;;;;5075376;28;20377;-68
2022/01/01 14:43:34;;;;;;;5.95;3.40;;;;;;;;;;5057675;28;20372;-67
2022/01/01 14:46:01;;;;;;;10.05;3.40;;;;;;;;;;5075340;28;20506;-66
2022/01/01 14:48:34;;;;;;;7.65;3.17;;;;;;;;;;5075379;28;20028;-66
2022/01/01 14:51:12;;;;;;;13.27;3.10;;;;;;;;;;5075451;28;20483;-67
2022/01/01 14:53:41;;;;;;;4.95;3.00;;;;;;;;;;5075268;28;20103;-67
2022/01/01 14:56:19;;;;;;;5.30;2.83;;;;;;;;;;5075331;28;20028;-67
2022/01/01 14:58:47;;;;;;;6.75;3.08;;;;;;;;;;5057069;28;20120;-67
2022/01/01 15:01:13;;;;;;;6.95;2.78;;;;;;;;;;5057273;28;20032;-67
2022/01/01 15:03:39;;;;;;;6.18;2.75;;;;;;;;;;5057152;28;20016;-67
2022/01/01 15:06:05;;;;;;;5.53;2.95;;;;;;;;;;5056938;28;20055;-68
2022/01/01 15:08:34;;;;;;;5.32;2.67;;;;;;;;;;5074003;28;20068;-67
2022/01/01 15:11:00;;;;;;;7.47;2.70;;;;;;;;;;5054611;28;20083;-67
2022/01/01 15:13:27;;;;;;;9.52;2.70;;;;;;;;;;5074269;28;20062;-67
2022/01/01 15:15:54;;;;;;;4.75;2.35;;;;;;;;;;5075101;28;20032;-67
2022/01/01 15:18:20;;;;;;;3.75;2.20;;;;;;;;;;5074773;28;20024;-67
2022/01/01 15:20:58;;;;;;;7.38;2.58;;;;;;;;;;5074797;28;20024;-67
2022/01/01 15:23:29;;;;;;;6.30;2.58;;;;;;;;;;5075047;28;20475;-67
2022/01/01 15:25:57;;;;;;;3.97;2.53;;;;;;;;;;5075286;28;20031;-67
2022/01/01 15:28:24;;;;;;;10.68;2.30;;;;;;;;;;5074819;28;20048;-68
2022/01/01 15:31:01;;;;;;;5.35;2.20;;;;;;;;;;5091808;28;20024;-67
2022/01/01 15:33:30;;;;;;;4.35;2.33;;;;;;;;;;5095334;28;20035;-67
2022/01/01 15:38:36;;;;;;;4.13;2.40;;;;;;;;;;5088094;28;20070;-67
2022/01/01 15:41:06;;;;;;;5.63;2.22;;;;;;;;;;5044538;28;20433;-68
2022/01/01 15:43:33;;;;;;;7.88;2.08;;;;;;;;;;5075136;28;20058;-68
2022/01/01 15:46:00;;;;;;;5.15;2.15;;;;;;;;;;5074578;28;20025;-66
2022/01/01 15:48:26;;;;;;;3.88;2.05;;;;;;;;;;5074287;28;20042;-66
2022/01/01 15:50:52;;;;;;;2.38;1.95;;;;;;;;;;5073490;28;20028;-66
2022/01/01 15:53:21;;;;;;;3.92;2.13;;;;;;;;;;5074764;28;20032;-67
2022/01/01 15:55:57;;;;;;;3.47;2.00;;;;;;;;;;5071536;28;20021;-66
2022/01/01 15:58:23;;;;;;;4.45;1.92;;;;;;;;;;5074346;28;20069;-66
2022/01/01 16:00:50;;;;;;;4.50;2.17;;;;;;;;;;5074271;28;20052;-66
2022/01/01 16:03:21;;;;;;;3.42;2.35;;;;;;;;;;5074134;28;20349;-67
2022/01/01 16:05:57;;;;;;;3.08;1.92;;;;;;;;;;5074264;28;20059;-66
2022/01/01 16:08:24;;;;;;;3.40;1.80;;;;;;;;;;5073574;28;20123;-67
2022/01/01 16:10:54;;;;;;;3.63;2.10;;;;;;;;;;5073557;28;20050;-68
2022/01/01 16:13:21;;;;;;;3.47;2.20;;;;;;;;;;5073939;28;20029;-68
2022/01/01 16:15:53;;;;;;;6.00;2.40;;;;;;;;;;5074315;28;20028;-68
2022/01/01 16:18:20;;;;;;;5.25;2.42;;;;;;;;;;5073802;28;20191;-68
2022/01/01 16:20:47;;;;;;;4.75;1.85;;;;;;;;;;5073839;28;20067;-68
2022/01/01 16:23:14;;;;;;;4.88;2.20;;;;;;;;;;5074088;28;20035;-68
2022/01/01 16:25:43;;;;;;;6.32;2.17;;;;;;;;;;5073910;28;20028;-68
2022/01/01 16:28:12;;;;;;;3.17;2.10;;;;;;;;;;5055744;28;20049;-68
2022/01/01 16:30:39;;;;;;;3.40;1.92;;;;;;;;;;5073841;28;20021;-66
2022/01/01 16:33:06;;;;;;;3.08;2.00;;;;;;;;;;5073807;28;20029;-68
2022/01/01 16:35:33;;;;;;;4.45;2.10;;;;;;;;;;5073593;28;20027;-68
2022/01/01 16:38:00;;;;;;;3.78;1.90;;;;;;;;;;5073695;28;20032;-68
2022/01/01 16:40:26;;;;;;;2.88;1.80;;;;;;;;;;5073540;28;20016;-68
2022/01/01 16:43:01;;;;;;;3.85;1.90;;;;;;;;;;5055323;28;20024;-68
2022/01/01 16:45:28;;;;;;;3.35;1.83;;;;;;;;;;5073505;28;20456;-68
2022/01/01 16:48:07;;;;;;;2.75;2.00;;;;;;;;;;5073377;28;20059;-68
2022/01/01 16:50:33;;;;;;;2.05;1.83;;;;;;;;;;5073238;28;20078;-67
2022/01/01 16:53:02;;;;;;;2.85;1.70;;;;;;;;;;5075190;28;20025;-66
2022/01/01 16:55:38;;;;;;;2.75;1.83;;;;;;;;;;5073241;28;20024;-66
2022/01/01 16:58:11;;;;;;;2.55;1.83;;;;;;;;;;5073334;28;20066;-67
2022/01/01 17:00:39;;;;;;;3.22;1.83;;;;;;;;;;5073422;28;20035;-67
2022/01/01 17:03:06;;;;;;;2.53;1.80;;;;;;;;;;5073291;28;20132;-67
2022/01/01 17:05:34;;;;;;;3.13;1.98;;;;;;;;;;5073252;28;20029;-67
2022/01/01 17:08:01;;;;;;;2.85;1.90;;;;;;;;;;5072857;28;20452;-67
2022/01/01 17:10:28;;;;;;;4.45;2.13;;;;;;;;;;5073281;28;20039;-68
2022/01/01 17:12:55;;;;;;;2.45;1.67;;;;;;;;;;5073208;28;20028;-67
2022/01/01 17:15:22;;;;;;;2.55;1.70;;;;;;;;;;5073265;28;20074;-67
2022/01/01 17:17:58;;;;;;;3.20;1.83;;;;;;;;;;5073148;28;20024;-67
2022/01/01 17:20:32;;;;;;;2.72;1.50;;;;;;;;;;5073053;28;20107;-67
2022/01/01 17:23:05;;;;;;;2.58;1.67;;;;;;;;;;5073052;28;20410;-67
2022/01/01 17:25:36;;;;;;;3.20;2.03;;;;;;;;;;5073211;28;20027;-67
2022/01/01 17:28:10;;;;;;;3.35;1.85;;;;;;;;;;5072862;28;20091;-67
2022/01/01 17:30:37;;;;;;;2.50;1.90;;;;;;;;;;5087641;28;20470;-66
2022/01/01 17:33:17;;;;;;;1.77;1.58;;;;;;;;;;5093270;28;20051;-67
2022/01/01 17:36:07;;;;;;;2.88;1.70;;;;;;;;;;5092977;28;20498;-67
2022/01/01 17:41:07;;;;;;;2.92;1.73;;;;;;;;;;5093411;28;20699;-67
2022/01/01 17:43:34;;;;;;;3.67;1.80;;;;;;;;;;5092899;28;20047;-67
2022/01/01 17:46:01;;;;;;;3.83;1.80;;;;;;;;;;5093135;28;20020;-67
2022/01/01 17:48:33;;;;;;;2.22;1.63;;;;;;;;;;5092836;28;20039;-67
2022/01/01 17:51:11;;;;;;;2.20;1.58;;;;;;;;;;5092949;28;20024;-68
2022/01/01 17:53:41;;;;;;;2.10;1.70;;;;;;;;;;5092790;28;20047;-67
2022/01/01 17:56:08;;;;;;;2.85;2.03;;;;;;;;;;5093197;28;20234;-67
2022/01/01 17:58:38;;;;;;;5.10;1.60;;;;;;;;;;5074589;28;20020;-67
2022/01/01 18:01:05;;;;;;;3.53;1.67;;;;;;;;;;5092885;28;20069;-67
2022/01/01 18:03:32;;;;;;;2.45;1.70;;;;;;;;;;5093089;28;20020;-67
2022/01/01 18:05:59;;;;;;;2.40;1.65;;;;;;;;;;5092631;28;20046;-67
2022/01/01 18:08:28;;;;;;;2.80;1.80;;;;;;;;;;5092520;28;20043;-67
2022/01/01 18:10:56;;;;;;;3.33;1.80;;;;;;;;;;5092670;28;20016;-67
2022/01/01 18:13:37;;;;;;;2.03;1.70;;;;;;;;;;5092749;28;20024;-67
2022/01/01 18:16:05;;;;;;;2.55;1.80;;;;;;;;;;5096910;28;20020;-67
2022/01/01 18:18:32;;;;;;;3.17;1.75;;;;;;;;;;5096421;28;20150;-67
2022/01/01 18:20:59;;;;;;;1.58;1.48;;;;;;;;;;5096384;28;20052;-67
2022/01/01 18:23:28;;;;;;;2.85;1.83;;;;;;;;;;5096187;28;20024;-67
2022/01/01 18:25:56;;;;;;;1.42;1.30;;;;;;;;;;5096374;28;20022;-67
2022/01/01 18:28:25;;;;;;;2.67;1.60;;;;;;;;;;5096043;28;20052;-68
2022/01/01 18:30:51;;;;;;;2.03;1.58;;;;;;;;;;5079509;28;20029;-67
2022/01/01 18:33:21;;;;;;;2.88;1.70;;;;;;;;;;5076077;28;20124;-67
2022/01/01 18:35:47;;;;;;;2.38;1.88;;;;;;;;;;5075940;28;20025;-68
2022/01/01 18:38:20;;;;;;;2.10;1.70;;;;;;;;;;5076195;28;20029;-67
2022/01/01 18:40:47;;;;;;;2.25;1.58;;;;;;;;;;5075644;28;20020;-67
2022/01/01 18:43:16;;;;;;;2.45;1.80;;;;;;;;;;5075527;28;20103;-67
2022/01/01 18:45:42;;;;;;;2.47;1.75;;;;;;;;;;5057788;28;20025;-67
2022/01/01 18:48:09;;;;;;;2.47;1.50;;;;;;;;;;5075537;28;20055;-67
2022/01/01 18:50:56;;;;;;;2.42;1.83;;;;;;;;;;5074961;28;20407;-67
2022/01/01 18:53:24;;;;;;;10.85;1.92;;;;;;;;;;5084216;28;20116;-67
2022/01/01 18:55:51;;;;;;;39.78;2.97;;;;;;;;;;5095923;28;20055;-70
2022/01/01 18:58:17;;;;;;;54.90;3.55;;;;;;;;;;5095570;28;20454;-69
2022/01/01 19:00:49;;;;;;;47.08;3.83;;;;;;;;;;5096024;28;20023;-68
2022/01/01 19:03:15;;;;;;;51.72;3.78;;;;;;;;;;5095762;28;20032;-68
2022/01/01 19:05:44;;;;;;;51.85;3.58;;;;;;;;;;5095573;28;20027;-69
2022/01/01 19:08:13;;;;;;;38.08;3.08;;;;;;;;;;5095523;28;20492;-67
2022/01/01 19:10:39;;;;;;;28.02;2.85;;;;;;;;;;5095926;28;20030;-68
2022/01/01 19:13:10;;;;;;;31.73;2.85;;;;;;;;;;5095646;28;20420;-70
2022/01/01 19:15:38;;;;;;;36.72;3.08;;;;;;;;;;5095479;28;20017;-65
2022/01/01 19:18:14;;;;;;;27.70;2.75;;;;;;;;;;5095463;28;20021;-65
2022/01/01 19:20:42;;;;;;;45.47;2.95;;;;;;;;;;5095164;28;20115;-65
2022/01/01 19:23:16;;;;;;;28.38;2.03;;;;;;;;;;5077093;28;20036;-64
2022/01/01 19:25:43;;;;;;;13.85;1.67;;;;;;;;;;5088652;28;20166;-65
2022/01/01 19:28:10;;;;;;;25.60;1.90;;;;;;;;;;5073883;28;20067;-65
2022/01/01 19:30:38;;;;;;;13.52;2.00;;;;;;;;;;5086081;28;20028;-65
2022/01/01 19:33:04;;;;;;;18.98;1.85;;;;;;;;;;5095039;28;20035;-65
2022/01/01 19:35:31;;;;;;;19.25;2.20;;;;;;;;;;5094438;28;20066;-65
2022/01/01 19:37:57;;;;;;;15.93;2.33;;;;;;;;;;5094470;28;20039;-65
2022/01/01 19:40:24;;;;;;;16.77;2.20;;;;;;;;;;5094653;28;20031;-65
2022/01/01 19:42:54;;;;;;;17.17;1.70;;;;;;;;;;5094707;28;20467;-65
2022/01/01 19:45:20;;;;;;;13.32;1.63;;;;;;;;;;5094875;28;20067;-65
2022/01/01 19:47:55;;;;;;;12.32;1.75;;;;;;;;;;5094610;28;20107;-65
2022/01/01 19:50:21;;;;;;;12.85;2.03;;;;;;;;;;5077307;28;20067;-65
2022/01/01 19:52:47;;;;;;;14.70;1.58;;;;;;;;;;5074850;28;20068;-65
2022/01/01 19:55:14;;;;;;;8.85;1.67;;;;;;;;;;5074195;28;20387;-65
2022/01/01 19:57:40;;;;;;;5.82;1.30;;;;;;;;;;5056463;28;20094;-65
2022/01/01 20:00:08;;;;;;;13.98;1.73;;;;;;;;;;5073360;28;20107;-65
2022/01/01 20:02:34;;;;;;;7.68;1.40;;;;;;;;;;5073492;28;20029;-65
2022/01/01 20:05:00;;;;;;;6.13;1.70;;;;;;;;;;5073475;28;20036;-65
2022/01/01 20:07:26;;;;;;;9.05;1.80;;;;;;;;;;5073278;28;20434;-65
2022/01/01 20:09:52;;;;;;;9.32;1.55;;;;;;;;;;5073338;28;20107;-65
2022/01/01 20:12:18;;;;;;;4.63;1.58;;;;;;;;;;5073838;28;20108;-64
2022/01/01 20:14:44;;;;;;;6.57;1.40;;;;;;;;;;5073357;28;20036;-65
2022/01/01 20:17:10;;;;;;;10.20;1.55;;;;;;;;;;5073105;28;20055;-66
2022/01/01 20:19:37;;;;;;;10.00;1.40;;;;;;;;;;5073391;28;20081;-66
2022/01/01 20:22:08;;;;;;;5.45;1.50;;;;;;;;;;5072695;28;20036;-65
2022/01/01 20:24:34;;;;;;;14.55;1.58;;;;;;;;;;5072621;28;20032;-66
2022/01/01 20:27:00;;;;;;;5.30;1.60;;;;;;;;;;5073228;28;20029;-65
2022/01/01 20:29:26;;;;;;;3.83;1.52;;;;;;;;;;5059848;28;20467;-65
2022/01/01 20:31:53;;;;;;;9.23;1.67;;;;;;;;;;5093845;28;20031;-66
2022/01/01 20:34:19;;;;;;;6.03;1.38;;;;;;;;;;5093756;28;20132;-65
2022/01/01 20:36:45;;;;;;;7.97;1.40;;;;;;;;;;5074889;28;20519;-66
2022/01/01 20:39:11;;;;;;;5.38;1.40;;;;;;;;;;5093592;28;20047;-65
2022/01/01 20:41:38;;;;;;;5.20;1.50;;;;;;;;;;5075851;28;20461;-65
2022/01/01 20:44:04;;;;;;;4.18;1.38;;;;;;;;;;5093783;28;20103;-64
2022/01/01 20:46:30;;;;;;;7.15;1.75;;;;;;;;;;5093585;28;20474;-64
2022/01/01 20:48:56;;;;;;;4.18;1.45;;;;;;;;;;5093648;28;20032;-64
2022/01/01 20:51:23;;;;;;;4.95;1.70;;;;;;;;;;5093454;28;20027;-64
2022/01/01 20:53:50;;;;;;;6.18;1.60;;;;;;;;;;5062961;28;20028;-65
2022/01/01 20:56:16;;;;;;;4.10;1.45;;;;;;;;;;5073435;28;20024;-65
2022/01/01 20:58:42;;;;;;;5.43;1.42;;;;;;;;;;5073499;28;20031;-65
2022/01/01 21:01:08;;;;;;;2.70;1.67;;;;;;;;;;5073213;28;20119;-66
2022/01/01 21:03:34;;;;;;;10.63;1.50;;;;;;;;;;5073080;28;20150;-65
2022/01/01 21:06:08;;;;;;;5.05;1.85;;;;;;;;;;5073081;28;20047;-64
2022/01/01 21:08:34;;;;;;;2.85;1.38;;;;;;;;;;5072820;28;20033;-64
2022/01/01 21:11:01;;;;;;;5.00;1.40;;;;;;;;;;5072925;28;20027;-66
2022/01/01 21:13:27;;;;;;;4.55;1.50;;;;;;;;;;5054999;28;20361;-65
2022/01/01 21:15:54;;;;;;;2.85;1.42;;;;;;;;;;5073296;28;20025;-66
2022/01/01 21:18:20;;;;;;;4.53;1.58;;;;;;;;;;5072999;28;20024;-66
2022/01/01 21:20:46;;;;;;;7.40;1.70;;;;;;;;;;5073046;28;20056;-64
2022/01/01 21:23:13;;;;;;;4.45;1.42;;;;;;;;;;5072858;28;20028;-65
2022/01/01 21:25:40;;;;;;;5.75;1.63;;;;;;;;;;5072952;28;20029;-63
2022/01/01 21:28:06;;;;;;;3.83;1.55;;;;;;;;;;5072517;28;20139;-65
2022/01/01 21:30:33;;;;;;;3.83;1.50;;;;;;;;;;5085839;28;20066;-66
2022/01/01 21:32:59;;;;;;;4.75;1.63;;;;;;;;;;5093086;28;20027;-65
2022/01/01 21:35:25;;;;;;;5.32;1.45;;;;;;;;;;5075027;28;20078;-65
2022/01/01 21:37:52;;;;;;;4.55;1.60;;;;;;;;;;5092895;28;20035;-66
2022/01/01 21:40:18;;;;;;;5.55;1.73;;;;;;;;;;5093268;28;20051;-66
2022/01/01 21:42:44;;;;;;;2.88;1.60;;;;;;;;;;5092613;28;20035;-65
2022/01/01 21:45:10;;;;;;;7.78;1.92;;;;;;;;;;5092730;28;20378;-65
2022/01/01 21:47:36;;;;;;;3.65;1.50;;;;;;;;;;5092926;28;20028;-65
2022/01/01 21:50:03;;;;;;;3.15;1.90;;;;;;;;;;5095607;28;20037;-65
2022/01/01 21:52:29;;;;;;;4.03;1.67;;;;;;;;;;5096857;28;20063;-65
2022/01/01 21:54:55;;;;;;;4.78;1.67;;;;;;;;;;5096810;28;20403;-65
2022/01/01 21:57:21;;;;;;;3.20;1.95;;;;;;;;;;5096921;28;20367;-64
2022/01/01 21:59:46;;;;;;;6.85;1.70;;;;;;;;;;5096657;28;20020;-64
2022/01/01 22:02:12;;;;;;;5.18;2.10;;;;;;;;;;5096733;28;20031;-65
2022/01/01 22:04:39;;;;;;;3.67;1.65;;;;;;;;;;5096821;28;20050;-65
2022/01/01 22:07:05;;;;;;;5.80;1.70;;;;;;;;;;5096530;28;20031;-65
2022/01/01 22:09:31;;;;;;;3.72;1.88;;;;;;;;;;5096859;28;20024;-65
2022/01/01 22:11:57;;;;;;;4.55;1.90;;;;;;;;;;5078117;28;20262;-65
2022/01/01 22:14:24;;;;;;;4.18;1.60;;;;;;;;;;5096483;28;20074;-65
2022/01/01 22:16:51;;;;;;;3.22;1.65;;;;;;;;;;5096540;28;20016;-65
2022/01/01 22:19:17;;;;;;;4.28;1.75;;;;;;;;;;5096620;28;20028;-64
2022/01/01 22:21:43;;;;;;;2.63;1.67;;;;;;;;;;5096149;28;20077;-65
2022/01/01 22:24:10;;;;;;;3.78;1.60;;;;;;;;;;5096301;28;20035;-64
2022/01/01 22:26:36;;;;;;;3.78;1.83;;;;;;;;;;5096412;28;20020;-64
2022/01/01 22:29:02;;;;;;;3.30;2.10;;;;;;;;;;5095311;28;20052;-64
2022/01/01 22:31:27;;;;;;;4.47;1.90;;;;;;;;;;5075836;28;20112;-64
2022/01/01 22:33:53;;;;;;;4.25;1.80;;;;;;;;;;5076217;28;20132;-65
2022/01/01 22:36:19;;;;;;;3.63;1.70;;;;;;;;;;5075884;28;20082;-65
2022/01/01 22:38:45;;;;;;;3.10;2.00;;;;;;;;;;5076002;28;20031;-64
2022/01/01 22:41:11;;;;;;;2.97;1.90;;;;;;;;;;5075742;28;20096;-65
2022/01/01 22:43:39;;;;;;;3.25;2.25;;;;;;;;;;5075442;28;20100;-66
2022/01/01 22:46:05;;;;;;;5.65;2.10;;;;;;;;;;5075866;28;20104;-65
2022/01/01 22:48:31;;;;;;;5.28;1.80;;;;;;;;;;5075589;28;20115;-64
2022/01/01 22:50:57;;;;;;;8.20;1.73;;;;;;;;;;5075488;28;20060;-64
2022/01/01 22:53:23;;;;;;;9.35;1.92;;;;;;;;;;5077503;28;20052;-64
2022/01/01 22:55:49;;;;;;;4.43;1.80;;;;;;;;;;5057514;28;20021;-64
2022/01/01 22:58:15;;;;;;;3.95;1.88;;;;;;;;;;5075330;28;20030;-65
2022/01/01 23:00:42;;;;;;;2.55;1.60;;;;;;;;;;5074904;28;20043;-64
2022/01/01 23:03:08;;;;;;;4.85;1.77;;;;;;;;;;5075259;28;20742;-64
2022/01/01 23:05:34;;;;;;;4.05;1.90;;;;;;;;;;5075442;28;20023;-64
2022/01/01 23:08:02;;;;;;;6.22;2.22;;;;;;;;;;5056903;28;20473;-64
2022/01/01 23:10:28;;;;;;;4.20;1.70;;;;;;;;;;5075256;28;20475;-64
2022/01/01 23:12:54;;;;;;;4.45;1.95;;;;;;;;;;5075094;28;20036;-65
2022/01/01 23:15:20;;;;;;;4.00;2.00;;;;;;;;;;5057618;28;20074;-63
2022/01/01 23:20:36;;;;;;;4.55;2.25;;;;;;;;;;5075274;28;20039;-64
2022/01/01 23:23:02;;;;;;;5.75;2.00;;;;;;;;;;5074879;28;20025;-63
2022/01/01 23:25:39;;;;;;;4.65;2.20;;;;;;;;;;5075413;28;20067;-63
2022/01/01 23:28:08;;;;;;;6.82;2.50;;;;;;;;;;5074610;28;20143;-64
2022/01/01 23:30:36;;;;;;;3.42;2.00;;;;;;;;;;5088396;28;20044;-63
2022/01/01 23:33:02;;;;;;;7.78;2.35;;;;;;;;;;5094995;28;20084;-64
2022/01/01 23:35:37;;;;;;;3.25;2.05;;;;;;;;;;5094936;28;20111;-63
2022/01/01 23:38:03;;;;;;;4.38;1.92;;;;;;;;;;5094968;28;20103;-64
2022/01/01 23:40:29;;;;;;;4.15;2.10;;;;;;;;;;5076760;28;20582;-63
2022/01/01 23:42:58;;;;;;;4.47;1.92;;;;;;;;;;5095047;28;20031;-64
2022/01/01 23:45:25;;;;;;;3.88;2.17;;;;;;;;;;5094716;28;20024;-63
2022/01/01 23:47:54;;;;;;;3.95;2.10;;;;;;;;;;5094553;28;20509;-64
2022/01/01 23:50:20;;;;;;;7.50;2.17;;;;;;;;;;5094489;28;20494;-65
2022/01/01 23:52:47;;;;;;;8.25;2.33;;;;;;;;;;5090927;28;20029;-65
2022/01/01 23:55:17;;;;;;;8.52;2.42;;;;;;;;;;5056459;28;20028;-64
2022/01/01 23:57:48;;;;;;;6.53;2.03;;;;;;;;;;5074455;28;20024;-63
